createdAt,value
2022-09-24T00:01:51.799Z,7.35
2022-09-24T00:04:20.180Z,8.77
2022-09-24T00:06:48.934Z,5.47
2022-09-24T00:09:19.070Z,10.00
2022-09-24T00:11:49.702Z,4.05
2022-09-24T00:14:17.879Z,4.95
2022-09-24T00:16:46.103Z,7.38
2022-09-24T00:19:14.777Z,7.93
2022-09-24T00:21:43.287Z,6.30
2022-09-24T00:24:33.654Z,8.27
2022-09-24T00:27:03.019Z,5.88
2022-09-24T00:29:32.279Z,7.53
2022-09-24T00:31:59.998Z,8.45
2022-09-24T00:34:28.138Z,8.77
2022-09-24T00:36:55.875Z,7.53
2022-09-24T00:39:23.877Z,7.20
2022-09-24T00:41:51.682Z,6.70
2022-09-24T00:44:37.995Z,6.05
2022-09-24T00:47:07.284Z,5.28
2022-09-24T00:49:35.051Z,5.07
2022-09-24T00:52:03.129Z,6.30
2022-09-24T00:54:30.848Z,8.40
2022-09-24T00:57:00.011Z,8.15
2022-09-24T00:59:28.313Z,8.05
2022-09-24T01:01:57.927Z,6.85
2022-09-24T01:04:28.520Z,4.80
2022-09-24T01:06:57.425Z,5.40
2022-09-24T01:09:26.734Z,11.55
2022-09-24T01:12:00.479Z,4.75
2022-09-24T01:14:50.429Z,8.38
2022-09-24T01:17:23.254Z,7.95
2022-09-24T01:20:09.781Z,8.65
2022-09-24T01:22:43.931Z,8.88
2022-09-24T01:25:20.663Z,6.95
2022-09-24T01:27:56.904Z,6.93
2022-09-24T01:30:28.074Z,5.90
2022-09-24T01:32:57.901Z,9.40
2022-09-24T01:35:27.616Z,10.35
2022-09-24T01:37:57.143Z,6.78
2022-09-24T01:40:27.008Z,9.02
2022-09-24T01:42:56.150Z,5.03
2022-09-24T01:45:24.522Z,6.18
2022-09-24T01:47:53.587Z,5.45
2022-09-24T01:50:21.749Z,6.35
2022-09-24T01:52:53.333Z,6.95
2022-09-24T01:55:22.937Z,6.35
2022-09-24T01:57:53.150Z,8.57
2022-09-24T02:00:22.126Z,9.38
2022-09-24T02:02:51.198Z,13.20
2022-09-24T02:05:25.208Z,17.90
2022-09-24T02:07:57.399Z,14.13
2022-09-24T02:10:25.198Z,11.23
2022-09-24T02:12:57.260Z,9.00
2022-09-24T02:15:31.399Z,8.27
2022-09-24T02:18:03.606Z,6.20
2022-09-24T02:20:33.248Z,8.40
2022-09-24T02:23:01.479Z,7.68
2022-09-24T02:25:31.233Z,7.32
2022-09-24T02:27:59.251Z,8.02
2022-09-24T02:30:27.068Z,5.57
2022-09-24T02:32:56.395Z,11.45
2022-09-24T02:35:23.289Z,7.05
2022-09-24T02:37:52.330Z,6.72
2022-09-24T02:40:20.142Z,5.78
2022-09-24T02:42:49.085Z,7.88
2022-09-24T02:45:17.120Z,6.03
2022-09-24T02:47:44.895Z,10.60
2022-09-24T02:50:12.700Z,8.10
2022-09-24T02:57:59.047Z,8.98
2022-09-24T03:00:26.796Z,6.95
2022-09-24T03:02:55.019Z,6.35
2022-09-24T03:05:22.852Z,7.65
2022-09-24T03:07:50.916Z,7.95
2022-09-24T03:10:20.052Z,8.32
2022-09-24T03:12:48.015Z,6.68
2022-09-24T03:15:17.379Z,9.65
2022-09-24T03:17:45.244Z,9.48
2022-09-24T03:20:12.956Z,6.53
2022-09-24T03:22:40.886Z,6.68
2022-09-24T03:25:09.250Z,10.88
2022-09-24T03:27:36.975Z,6.30
2022-09-24T03:30:22.647Z,7.50
2022-09-24T03:32:51.863Z,5.90
2022-09-24T03:35:19.691Z,6.43
2022-09-24T03:37:49.329Z,8.18
2022-09-24T03:40:17.307Z,8.23
2022-09-24T03:42:45.057Z,5.63
2022-09-24T03:45:12.835Z,7.57
2022-09-24T03:47:42.329Z,6.75
2022-09-24T03:50:11.873Z,5.47
2022-09-24T03:52:39.606Z,6.97
2022-09-24T03:55:08.044Z,5.78
2022-09-24T03:57:36.024Z,6.60
2022-09-24T04:00:04.047Z,6.93
2022-09-24T04:02:31.786Z,7.28
2022-09-24T04:04:59.531Z,7.35
2022-09-24T04:07:29.242Z,5.40
2022-09-24T04:09:57.188Z,6.10
2022-09-24T04:12:24.895Z,8.07
2022-09-24T04:14:52.747Z,7.82
2022-09-24T04:17:20.445Z,8.38
2022-09-24T04:19:48.456Z,7.57
2022-09-24T04:22:16.751Z,8.25
2022-09-24T04:24:46.122Z,6.22
2022-09-24T04:27:14.087Z,7.55
2022-09-24T04:29:41.818Z,9.15
2022-09-24T04:32:10.118Z,5.72
2022-09-24T04:34:37.848Z,4.97
2022-09-24T04:37:05.824Z,8.70
2022-09-24T04:39:33.891Z,5.45
2022-09-24T04:42:02.962Z,5.55
2022-09-24T04:44:30.718Z,7.50
2022-09-24T04:47:02.993Z,6.57
2022-09-24T04:49:30.967Z,7.10
2022-09-24T04:51:58.992Z,7.80
2022-09-24T04:54:29.629Z,7.43
2022-09-24T04:56:57.570Z,8.32
2022-09-24T04:59:26.636Z,6.68
2022-09-24T05:01:55.085Z,10.25
2022-09-24T05:04:22.891Z,10.48
2022-09-24T05:06:50.619Z,6.93
2022-09-24T05:09:18.703Z,6.28
2022-09-24T05:11:46.637Z,12.18
2022-09-24T05:14:14.406Z,9.57
2022-09-24T05:16:43.573Z,5.90
2022-09-24T05:19:11.309Z,10.57
2022-09-24T05:21:39.415Z,8.98
2022-09-24T05:24:07.331Z,7.30
2022-09-24T05:26:52.809Z,6.82
2022-09-24T05:29:20.694Z,7.88
2022-09-24T05:31:49.994Z,7.03
2022-09-24T05:34:18.540Z,8.07
2022-09-24T05:36:52.677Z,9.38
2022-09-24T05:39:33.854Z,7.53
2022-09-24T05:42:04.396Z,9.98
2022-09-24T05:44:32.138Z,7.22
2022-09-24T05:47:01.247Z,8.02
2022-09-24T05:49:29.016Z,8.60
2022-09-24T05:51:57.184Z,8.20
2022-09-24T05:54:24.943Z,7.20
2022-09-24T05:56:52.729Z,10.10
2022-09-24T05:59:20.591Z,5.97
2022-09-24T06:01:49.271Z,7.82
2022-09-24T06:04:18.506Z,9.35
2022-09-24T06:06:46.398Z,11.05
2022-09-24T06:09:14.639Z,11.95
2022-09-24T06:11:43.932Z,6.78
2022-09-24T06:14:13.066Z,12.00
2022-09-24T06:16:40.812Z,5.70
2022-09-24T06:19:08.859Z,9.70
2022-09-24T06:21:37.937Z,7.82
2022-09-24T06:24:05.849Z,12.90
2022-09-24T06:26:34.204Z,7.68
2022-09-24T06:29:04.973Z,7.10
2022-09-24T06:31:34.218Z,6.15
2022-09-24T06:34:02.915Z,5.57
2022-09-24T06:36:30.624Z,6.90
2022-09-24T06:39:00.028Z,8.70
2022-09-24T06:41:28.020Z,6.25
2022-09-24T06:43:56.094Z,7.88
2022-09-24T06:46:25.693Z,7.50
2022-09-24T06:48:55.022Z,9.70
2022-09-24T06:51:22.798Z,7.20
2022-09-24T06:53:51.980Z,9.85
2022-09-24T06:56:21.072Z,6.20
2022-09-24T06:58:48.970Z,7.50
2022-09-24T07:01:16.957Z,6.13
2022-09-24T07:03:44.987Z,8.27
2022-09-24T07:06:12.691Z,7.95
2022-09-24T07:08:40.418Z,8.18
2022-09-24T07:11:08.916Z,6.25
2022-09-24T07:13:38.718Z,7.45
2022-09-24T07:16:06.887Z,8.00
2022-09-24T07:18:34.699Z,7.55
2022-09-24T07:21:02.766Z,9.02
2022-09-24T07:23:30.615Z,6.97
2022-09-24T07:25:58.593Z,8.77
2022-09-24T07:28:26.689Z,9.85
2022-09-24T07:30:59.363Z,14.50
2022-09-24T07:33:27.358Z,12.90
2022-09-24T07:39:22.007Z,12.40
2022-09-24T07:41:52.180Z,8.88
2022-09-24T07:44:20.462Z,9.68
2022-09-24T07:46:49.828Z,8.40
2022-09-24T07:49:18.344Z,7.03
2022-09-24T07:51:46.222Z,8.75
2022-09-24T07:54:17.227Z,7.80
2022-09-24T07:56:45.195Z,8.65
2022-09-24T07:59:13.241Z,8.55
2022-09-24T08:01:41.168Z,9.40
2022-09-24T08:04:10.535Z,6.82
2022-09-24T08:06:43.620Z,10.23
2022-09-24T08:09:15.712Z,7.30
2022-09-24T08:11:43.608Z,7.32
2022-09-24T08:14:11.615Z,7.45
2022-09-24T08:16:40.650Z,7.20
2022-09-24T08:19:14.013Z,8.32
2022-09-24T08:21:41.991Z,8.77
2022-09-24T08:24:10.174Z,13.45
2022-09-24T08:26:38.036Z,7.97
2022-09-24T08:29:05.910Z,11.80
2022-09-24T08:31:36.247Z,8.40
2022-09-24T08:34:04.116Z,7.90
2022-09-24T08:36:33.605Z,8.60
2022-09-24T08:39:01.566Z,11.10
2022-09-24T08:41:40.200Z,7.47
2022-09-24T08:44:11.392Z,10.40
2022-09-24T08:46:59.313Z,7.22
2022-09-24T08:49:29.917Z,7.80
2022-09-24T08:52:03.151Z,6.55
2022-09-24T08:54:32.092Z,8.93
2022-09-24T08:57:01.159Z,6.45
2022-09-24T08:59:30.635Z,8.18
2022-09-24T09:02:07.134Z,8.07
2022-09-24T09:04:38.740Z,9.52
2022-09-24T09:07:13.403Z,9.23
2022-09-24T09:09:44.443Z,6.85
2022-09-24T09:12:14.571Z,9.15
2022-09-24T09:14:44.664Z,7.40
2022-09-24T09:17:15.792Z,10.35
2022-09-24T09:19:44.475Z,8.70
2022-09-24T09:22:14.760Z,10.57
2022-09-24T09:24:45.306Z,7.88
2022-09-24T09:27:14.902Z,9.85
2022-09-24T09:29:43.258Z,8.55
2022-09-24T09:32:17.866Z,12.65
2022-09-24T09:34:51.429Z,10.48
2022-09-24T09:37:26.095Z,7.95
2022-09-24T09:39:58.083Z,18.42
2022-09-24T09:42:28.033Z,8.80
2022-09-24T09:44:56.229Z,8.15
2022-09-24T09:47:26.381Z,9.43
2022-09-24T09:49:57.122Z,10.40
2022-09-24T09:52:28.330Z,7.80
2022-09-24T09:54:56.111Z,7.82
2022-09-24T09:57:25.240Z,11.13
2022-09-24T09:59:56.261Z,12.65
2022-09-24T10:02:26.283Z,12.10
2022-09-24T10:04:55.819Z,8.93
2022-09-24T10:07:23.805Z,8.23
2022-09-24T10:10:03.395Z,7.55
2022-09-24T10:12:31.508Z,11.50
2022-09-24T10:15:01.187Z,9.00
2022-09-24T10:17:31.014Z,7.78
2022-09-24T10:20:00.993Z,9.23
2022-09-24T10:22:29.800Z,10.65
2022-09-24T10:24:59.828Z,8.80
2022-09-24T10:27:32.230Z,9.30
2022-09-24T10:30:17.945Z,11.32
2022-09-24T10:32:48.650Z,7.18
2022-09-24T10:35:25.218Z,15.48
2022-09-24T10:37:53.768Z,8.05
2022-09-24T10:40:25.484Z,7.63
2022-09-24T10:42:58.345Z,9.88
2022-09-24T10:45:31.171Z,8.05
2022-09-24T10:48:01.724Z,8.52
2022-09-24T10:50:31.870Z,7.25
2022-09-24T10:53:02.552Z,6.65
2022-09-24T10:55:37.422Z,7.32
2022-09-24T10:58:14.046Z,6.72
2022-09-24T11:00:47.097Z,7.18
2022-09-24T11:05:45.824Z,6.95
2022-09-24T11:08:20.148Z,6.68
2022-09-24T11:10:56.745Z,6.18
2022-09-24T11:13:29.551Z,5.22
2022-09-24T11:16:15.490Z,5.78
2022-09-24T11:18:47.721Z,6.60
2022-09-24T11:21:23.852Z,7.83
2022-09-24T11:23:56.900Z,6.60
2022-09-24T11:29:02.019Z,8.52
2022-09-24T11:31:32.665Z,6.63
2022-09-24T11:34:09.780Z,6.00
2022-09-24T11:36:52.618Z,7.60
2022-09-24T11:39:28.681Z,9.05
2022-09-24T11:42:02.998Z,5.82
2022-09-24T11:44:44.580Z,8.93
2022-09-24T11:47:18.084Z,3.58
2022-09-24T11:49:54.727Z,4.25
2022-09-24T11:52:27.187Z,9.43
2022-09-24T11:55:00.954Z,10.25
2022-09-24T11:57:30.049Z,8.68
2022-09-24T12:00:04.780Z,5.53
2022-09-24T12:02:35.039Z,6.00
2022-09-24T12:05:07.214Z,8.00
2022-09-24T12:07:38.054Z,4.67
2022-09-24T12:10:25.020Z,6.03
2022-09-24T12:12:54.723Z,6.53
2022-09-24T12:15:25.975Z,7.35
2022-09-24T12:17:58.097Z,5.35
2022-09-24T12:20:28.994Z,8.17
2022-09-24T12:23:00.374Z,4.30
2022-09-24T12:25:29.767Z,6.72
2022-09-24T12:27:59.014Z,7.50
2022-09-24T12:31:00.944Z,5.65
2022-09-24T12:33:33.125Z,5.10
2022-09-24T12:36:05.551Z,3.33
2022-09-24T12:38:39.229Z,6.10
2022-09-24T12:41:19.271Z,4.53
2022-09-24T12:43:48.994Z,7.88
2022-09-24T12:46:20.685Z,6.63
2022-09-24T12:48:49.516Z,4.53
2022-09-24T12:51:22.216Z,5.57
2022-09-24T12:53:58.038Z,3.55
2022-09-24T12:56:27.602Z,7.72
2022-09-24T12:58:55.663Z,4.18
2022-09-24T13:01:32.498Z,7.97
2022-09-24T13:04:25.883Z,3.28
2022-09-24T13:07:00.864Z,2.70
2022-09-24T13:09:33.835Z,5.78
2022-09-24T13:14:31.378Z,3.83
2022-09-24T13:17:06.765Z,3.85
2022-09-24T13:19:36.322Z,4.53
2022-09-24T13:22:04.370Z,5.18
2022-09-24T13:24:34.373Z,4.15
2022-09-24T13:27:22.282Z,5.45
2022-09-24T13:30:03.272Z,5.78
2022-09-24T13:32:34.431Z,5.00
2022-09-24T13:35:06.487Z,3.17
2022-09-24T13:37:36.044Z,4.97
2022-09-24T13:40:05.372Z,5.97
2022-09-24T13:42:36.195Z,4.18
2022-09-24T13:45:09.706Z,4.47
2022-09-24T13:47:42.665Z,3.40
2022-09-24T13:50:14.524Z,4.05
2022-09-24T13:52:44.152Z,4.22
2022-09-24T13:55:21.259Z,4.35
2022-09-24T13:57:52.208Z,4.93
2022-09-24T14:00:37.579Z,5.00
2022-09-24T14:03:19.902Z,4.22
2022-09-24T14:05:47.710Z,5.23
2022-09-24T14:08:30.507Z,8.13
2022-09-24T14:11:12.685Z,5.22
2022-09-24T14:13:45.619Z,3.92
2022-09-24T14:16:16.221Z,4.50
2022-09-24T14:18:46.322Z,5.10
2022-09-24T14:21:17.249Z,7.78
2022-09-24T14:23:48.186Z,8.88
2022-09-24T14:26:18.501Z,3.90
2022-09-24T14:28:46.472Z,6.80
2022-09-24T14:31:14.452Z,6.00
2022-09-24T14:33:42.328Z,4.10
2022-09-24T14:36:13.808Z,3.95
2022-09-24T14:38:53.506Z,5.70
2022-09-24T14:41:23.375Z,3.15
2022-09-24T14:43:53.074Z,6.22
2022-09-24T14:46:23.553Z,5.30
2022-09-24T14:48:52.313Z,3.85
2022-09-24T14:51:27.148Z,3.30
2022-09-24T14:53:58.714Z,4.60
2022-09-24T14:56:28.419Z,3.92
2022-09-24T14:58:56.764Z,7.15
2022-09-24T15:01:25.848Z,3.03
2022-09-24T15:03:54.988Z,6.88
2022-09-24T15:06:24.094Z,5.65
2022-09-24T15:08:58.728Z,4.15
2022-09-24T15:11:28.688Z,2.70
2022-09-24T15:14:00.414Z,5.82
2022-09-24T15:16:30.066Z,3.13
2022-09-24T15:18:59.896Z,3.35
2022-09-24T15:21:27.928Z,3.83
2022-09-24T15:23:59.616Z,6.50
2022-09-24T15:26:29.359Z,2.88
2022-09-24T15:28:58.083Z,2.97
2022-09-24T15:31:26.003Z,3.03
2022-09-24T15:33:54.006Z,3.80
2022-09-24T15:36:21.981Z,4.78
2022-09-24T15:38:49.950Z,2.97
2022-09-24T15:41:19.525Z,3.45
2022-09-24T15:43:47.233Z,5.22
2022-09-24T15:46:15.217Z,9.23
2022-09-24T15:48:43.027Z,2.53
2022-09-24T15:51:15.055Z,3.53
2022-09-24T15:53:43.484Z,4.22
2022-09-24T15:56:11.265Z,6.78
2022-09-24T15:58:40.691Z,3.97
2022-09-24T16:01:11.935Z,4.28
2022-09-24T16:03:40.354Z,4.15
2022-09-24T16:06:14.404Z,2.95
2022-09-24T16:08:43.024Z,3.38
2022-09-24T16:11:10.784Z,5.03
2022-09-24T16:13:40.051Z,2.60
2022-09-24T16:16:08.222Z,2.75
2022-09-24T16:18:39.220Z,2.42
2022-09-24T16:21:07.563Z,2.38
2022-09-24T16:23:35.531Z,3.42
2022-09-24T16:26:03.774Z,8.65
2022-09-24T16:28:31.850Z,7.65
2022-09-24T16:31:05.558Z,9.35
2022-09-24T16:33:33.653Z,7.75
2022-09-24T16:36:05.077Z,10.80
2022-09-24T16:38:34.682Z,5.07
2022-09-24T16:41:02.432Z,3.35
2022-09-24T16:43:30.150Z,7.28
2022-09-24T16:46:03.724Z,11.52
2022-09-24T16:48:31.704Z,4.90
2022-09-24T16:51:03.210Z,4.45
2022-09-24T16:53:31.136Z,7.00
2022-09-24T16:56:03.320Z,5.00
2022-09-24T16:58:31.819Z,5.33
2022-09-24T17:00:59.641Z,4.93
2022-09-24T17:03:29.081Z,7.10
2022-09-24T17:05:56.842Z,6.63
2022-09-24T17:08:44.558Z,7.82
2022-09-24T17:11:11.458Z,5.57
2022-09-24T17:13:39.240Z,4.13
2022-09-24T17:16:07.038Z,4.55
2022-09-24T17:18:36.607Z,5.85
2022-09-24T17:21:05.280Z,6.07
2022-09-24T17:23:33.012Z,5.60
2022-09-24T17:26:03.672Z,6.13
2022-09-24T17:28:33.187Z,4.40
2022-09-24T17:31:01.011Z,4.32
2022-09-24T17:33:42.750Z,8.35
2022-09-24T17:36:14.362Z,5.68
2022-09-24T17:38:42.565Z,7.07
2022-09-24T17:41:11.792Z,6.10
2022-09-24T17:43:40.372Z,7.50
2022-09-24T17:46:13.551Z,7.53
2022-09-24T17:48:42.896Z,7.20
2022-09-24T17:51:13.794Z,9.50
2022-09-24T17:53:41.976Z,9.75
2022-09-24T17:56:11.534Z,5.47
2022-09-24T17:58:40.363Z,4.40
2022-09-24T18:01:09.552Z,5.07
2022-09-24T18:03:37.415Z,4.72
2022-09-24T18:06:06.447Z,4.28
2022-09-24T18:08:38.296Z,5.40
2022-09-24T18:11:07.168Z,7.30
2022-09-24T18:13:35.203Z,11.05
2022-09-24T18:16:03.529Z,6.40
2022-09-24T18:18:31.352Z,7.35
2022-09-24T18:21:00.018Z,7.68
2022-09-24T18:23:28.557Z,7.22
2022-09-24T18:26:07.993Z,6.05
2022-09-24T18:28:35.733Z,7.10
2022-09-24T18:31:05.777Z,6.00
2022-09-24T18:33:33.599Z,6.65
2022-09-24T18:36:05.202Z,10.00
2022-09-24T18:38:32.950Z,5.40
2022-09-24T18:41:02.785Z,9.77
2022-09-24T18:43:31.371Z,7.40
2022-09-24T18:46:02.853Z,8.55
2022-09-24T18:48:30.838Z,16.77
2022-09-24T18:50:59.133Z,6.60
2022-09-24T18:53:27.035Z,6.75
2022-09-24T18:55:55.037Z,7.82
2022-09-24T18:58:24.384Z,6.40
2022-09-24T19:00:54.078Z,7.55
2022-09-24T19:03:22.866Z,8.48
2022-09-24T19:05:51.549Z,8.68
2022-09-24T19:08:20.155Z,7.40
2022-09-24T19:10:48.560Z,9.00
2022-09-24T19:13:16.729Z,8.05
2022-09-24T19:15:46.965Z,8.82
2022-09-24T19:18:16.553Z,9.55
2022-09-24T19:20:45.620Z,9.65
2022-09-24T19:23:13.775Z,10.02
2022-09-24T19:25:42.300Z,10.05
2022-09-24T19:28:20.430Z,13.00
2022-09-24T19:30:50.404Z,8.57
2022-09-24T19:33:18.211Z,7.22
2022-09-24T19:35:54.376Z,13.75
2022-09-24T19:38:25.873Z,8.63
2022-09-24T19:40:57.130Z,11.43
2022-09-24T19:43:24.973Z,10.27
2022-09-24T19:45:59.217Z,10.57
2022-09-24T19:48:27.452Z,8.05
2022-09-24T19:50:55.452Z,8.80
2022-09-24T19:53:25.751Z,11.88
2022-09-24T19:55:53.705Z,10.23
2022-09-24T19:58:21.425Z,15.43
2022-09-24T20:00:49.344Z,18.23
2022-09-24T20:03:19.382Z,12.98
2022-09-24T20:05:49.957Z,11.00
2022-09-24T20:08:17.695Z,13.85
2022-09-24T20:10:46.504Z,16.35
2022-09-24T20:13:14.276Z,15.60
2022-09-24T20:15:42.530Z,13.43
2022-09-24T20:18:11.685Z,19.40
2022-09-24T20:20:40.815Z,22.08
2022-09-24T20:23:10.815Z,12.73
2022-09-24T20:25:56.066Z,19.77
2022-09-24T20:28:23.900Z,12.82
2022-09-24T20:30:54.577Z,13.93
2022-09-24T20:33:22.369Z,13.93
2022-09-24T20:35:52.310Z,15.43
2022-09-24T20:38:20.311Z,13.48
2022-09-24T20:40:48.218Z,16.98
2022-09-24T20:43:18.183Z,15.88
2022-09-24T20:45:47.284Z,22.52
2022-09-24T20:48:15.270Z,16.58
2022-09-24T20:50:43.178Z,17.85
2022-09-24T20:53:12.387Z,20.65
2022-09-24T20:55:40.609Z,18.50
2022-09-24T20:58:10.116Z,20.17
2022-09-24T21:00:47.866Z,16.98
2022-09-24T21:03:39.711Z,18.60
2022-09-24T21:06:04.787Z,18.25
2022-09-24T21:08:34.611Z,15.15
2022-09-24T21:11:02.847Z,18.60
2022-09-24T21:13:33.778Z,18.98
2022-09-24T21:16:04.011Z,17.80
2022-09-24T21:18:39.613Z,18.33
2022-09-24T21:21:11.253Z,14.20
2022-09-24T21:23:40.342Z,23.20
2022-09-24T21:26:11.744Z,20.55
2022-09-24T21:28:39.553Z,21.27
2022-09-24T21:31:10.285Z,22.20
2022-09-24T21:33:38.125Z,21.95
2022-09-24T21:36:06.766Z,20.73
2022-09-24T21:38:37.160Z,24.20
2022-09-24T21:41:08.474Z,23.73
2022-09-24T21:43:36.697Z,16.67
2022-09-24T21:46:06.493Z,19.00
2022-09-24T21:48:35.135Z,19.23
2022-09-24T21:51:03.812Z,19.60
2022-09-24T21:53:31.733Z,23.23
2022-09-24T21:55:59.485Z,16.95
2022-09-24T21:58:29.508Z,16.60
2022-09-24T22:01:03.201Z,17.63
2022-09-24T22:03:32.943Z,16.50
2022-09-24T22:06:03.297Z,20.42
2022-09-24T22:08:32.001Z,21.73
2022-09-24T22:11:03.695Z,24.55
2022-09-24T22:13:33.518Z,24.05
2022-09-24T22:16:02.109Z,23.20
2022-09-24T22:18:30.371Z,24.90
2022-09-24T22:20:58.651Z,21.42
2022-09-24T22:23:27.149Z,19.63
2022-09-24T22:25:55.272Z,17.85
2022-09-24T22:28:25.306Z,14.82
2022-09-24T22:30:55.881Z,14.68
2022-09-24T22:33:41.279Z,12.63
2022-09-24T22:36:09.421Z,12.90
2022-09-24T22:38:37.657Z,14.80
2022-09-24T22:41:06.530Z,11.80
2022-09-24T22:43:34.295Z,16.65
2022-09-24T22:46:04.659Z,14.80
2022-09-24T22:48:33.419Z,12.05
2022-09-24T22:51:01.273Z,18.80
2022-09-24T22:53:29.183Z,12.82
2022-09-24T22:56:03.848Z,14.63
2022-09-24T22:58:32.560Z,17.90
2022-09-24T23:01:08.560Z,13.02
2022-09-24T23:03:37.024Z,14.27
2022-09-24T23:06:05.966Z,13.20
2022-09-24T23:08:34.045Z,11.35
2022-09-24T23:11:08.200Z,13.50
2022-09-24T23:13:36.439Z,11.75
2022-09-24T23:16:10.341Z,10.80
2022-09-24T23:18:38.822Z,10.80
2022-09-24T23:21:06.932Z,11.95
2022-09-24T23:23:34.734Z,12.93
2022-09-24T23:26:05.171Z,12.98
2022-09-24T23:28:33.822Z,11.68
2022-09-24T23:31:02.233Z,11.70
2022-09-24T23:33:33.163Z,15.02
2022-09-24T23:36:01.653Z,11.90
2022-09-24T23:38:29.702Z,10.90
2022-09-24T23:40:58.809Z,10.88
2022-09-24T23:43:27.348Z,15.35
2022-09-24T23:45:55.611Z,12.57
2022-09-24T23:48:23.626Z,13.85
2022-09-24T23:50:52.756Z,16.40
2022-09-24T23:53:21.999Z,17.23
2022-09-24T23:55:50.269Z,13.57
2022-09-24T23:58:20.133Z,14.20
